sensor_id;sensor_type;location;lat;lon;timestamp;P1;durP1;ratioP1;P2;durP2;ratioP2
56136;SDS011;42008;52.934;5.884;2023-05-15T00:00:50;67.53;;;38.77;;
56136;SDS011;42008;52.934;5.884;2023-05-15T00:03:16;46.33;;;36.40;;
56136;SDS011;42008;52.934;5.884;2023-05-15T00:05:42;62.90;;;41.97;;
56136;SDS011;42008;52.934;5.884;2023-05-15T00:08:07;71.10;;;40.17;;
56136;SDS011;42008;52.934;5.884;2023-05-15T00:10:33;67.87;;;39.90;;
56136;SDS011;42008;52.934;5.884;2023-05-15T00:12:59;48.83;;;37.70;;
56136;SDS011;42008;52.934;5.884;2023-05-15T00:15:24;85.70;;;42.07;;
56136;SDS011;42008;52.934;5.884;2023-05-15T00:17:50;48.13;;;37.30;;
56136;SDS011;42008;52.934;5.884;2023-05-15T00:20:15;53.20;;;37.70;;
56136;SDS011;42008;52.934;5.884;2023-05-15T00:22:41;52.37;;;37.13;;
56136;SDS011;42008;52.934;5.884;2023-05-15T00:25:07;54.33;;;36.50;;
56136;SDS011;42008;52.934;5.884;2023-05-15T00:27:33;47.80;;;34.80;;
56136;SDS011;42008;52.934;5.884;2023-05-15T00:29:58;52.37;;;37.97;;
56136;SDS011;42008;52.934;5.884;2023-05-15T00:32:24;49.17;;;36.13;;
56136;SDS011;42008;52.934;5.884;2023-05-15T00:34:49;48.00;;;35.07;;
56136;SDS011;42008;52.934;5.884;2023-05-15T00:37:15;49.13;;;35.33;;
56136;SDS011;42008;52.934;5.884;2023-05-15T00:39:40;56.87;;;36.47;;
56136;SDS011;42008;52.934;5.884;2023-05-15T00:42:06;55.20;;;36.33;;
56136;SDS011;42008;52.934;5.884;2023-05-15T00:44:33;54.37;;;35.77;;
56136;SDS011;42008;52.934;5.884;2023-05-15T00:47:00;61.17;;;37.43;;
56136;SDS011;42008;52.934;5.884;2023-05-15T00:49:27;51.67;;;35.33;;
56136;SDS011;42008;52.934;5.884;2023-05-15T00:51:54;57.00;;;37.23;;
56136;SDS011;42008;52.934;5.884;2023-05-15T00:54:21;47.57;;;35.30;;
56136;SDS011;42008;52.934;5.884;2023-05-15T00:56:46;48.87;;;34.67;;
56136;SDS011;42008;52.934;5.884;2023-05-15T00:59:14;49.67;;;35.53;;
56136;SDS011;42008;52.934;5.884;2023-05-15T01:01:41;54.17;;;35.43;;
56136;SDS011;42008;52.934;5.884;2023-05-15T01:04:09;54.40;;;36.13;;
56136;SDS011;42008;52.934;5.884;2023-05-15T01:06:35;53.83;;;36.43;;
56136;SDS011;42008;52.934;5.884;2023-05-15T01:09:01;50.10;;;35.73;;
56136;SDS011;42008;52.934;5.884;2023-05-15T01:11:28;56.63;;;36.77;;
56136;SDS011;42008;52.934;5.884;2023-05-15T01:14:01;62.67;;;38.90;;
56136;SDS011;42008;52.934;5.884;2023-05-15T01:16:32;77.43;;;37.35;;
56136;SDS011;42008;52.934;5.884;2023-05-15T01:18:58;51.90;;;36.37;;
56136;SDS011;42008;52.934;5.884;2023-05-15T01:30:09;139.37;;;40.37;;
56136;SDS011;42008;52.934;5.884;2023-05-15T01:35:33;55.10;;;36.43;;
56136;SDS011;42008;52.934;5.884;2023-05-15T01:44:10;56.00;;;38.13;;
56136;SDS011;42008;52.934;5.884;2023-05-15T01:46:45;133.30;;;40.30;;
56136;SDS011;42008;52.934;5.884;2023-05-15T01:49:15;68.97;;;43.83;;
56136;SDS011;42008;52.934;5.884;2023-05-15T01:51:43;197.90;;;49.43;;
56136;SDS011;42008;52.934;5.884;2023-05-15T01:54:12;473.73;;;59.57;;
56136;SDS011;42008;52.934;5.884;2023-05-15T01:56:39;430.07;;;51.50;;
56136;SDS011;42008;52.934;5.884;2023-05-15T01:59:09;547.07;;;59.47;;
56136;SDS011;42008;52.934;5.884;2023-05-15T02:01:37;483.80;;;57.90;;
56136;SDS011;42008;52.934;5.884;2023-05-15T02:04:03;216.77;;;46.77;;
56136;SDS011;42008;52.934;5.884;2023-05-15T02:06:30;447.80;;;52.87;;
56136;SDS011;42008;52.934;5.884;2023-05-15T02:08:57;368.20;;;50.23;;
56136;SDS011;42008;52.934;5.884;2023-05-15T02:11:23;205.17;;;43.27;;
56136;SDS011;42008;52.934;5.884;2023-05-15T02:13:48;322.03;;;47.80;;
56136;SDS011;42008;52.934;5.884;2023-05-15T02:16:15;213.40;;;39.60;;
56136;SDS011;42008;52.934;5.884;2023-05-15T02:18:41;421.57;;;51.83;;
56136;SDS011;42008;52.934;5.884;2023-05-15T02:21:06;242.27;;;41.90;;
56136;SDS011;42008;52.934;5.884;2023-05-15T02:23:32;303.70;;;43.10;;
56136;SDS011;42008;52.934;5.884;2023-05-15T02:26:13;335.50;;;43.70;;
56136;SDS011;42008;52.934;5.884;2023-05-15T02:29:30;158.57;;;38.95;;
56136;SDS011;42008;52.934;5.884;2023-05-15T02:32:17;220.27;;;42.63;;
56136;SDS011;42008;52.934;5.884;2023-05-15T02:35:08;90.27;;;38.33;;
56136;SDS011;42008;52.934;5.884;2023-05-15T02:37:35;64.23;;;36.33;;
56136;SDS011;42008;52.934;5.884;2023-05-15T02:40:03;63.50;;;34.77;;
56136;SDS011;42008;52.934;5.884;2023-05-15T02:42:33;52.77;;;33.90;;
56136;SDS011;42008;52.934;5.884;2023-05-15T02:45:00;51.27;;;34.53;;
56136;SDS011;42008;52.934;5.884;2023-05-15T02:47:27;52.80;;;34.57;;
56136;SDS011;42008;52.934;5.884;2023-05-15T02:49:54;49.90;;;32.87;;
56136;SDS011;42008;52.934;5.884;2023-05-15T02:52:24;46.37;;;33.53;;
56136;SDS011;42008;52.934;5.884;2023-05-15T02:54:50;47.40;;;35.57;;
56136;SDS011;42008;52.934;5.884;2023-05-15T02:57:15;52.73;;;35.90;;
56136;SDS011;42008;52.934;5.884;2023-05-15T02:59:41;45.73;;;33.77;;
56136;SDS011;42008;52.934;5.884;2023-05-15T03:02:07;44.40;;;32.57;;
56136;SDS011;42008;52.934;5.884;2023-05-15T03:04:32;40.83;;;31.87;;
56136;SDS011;42008;52.934;5.884;2023-05-15T03:06:58;46.30;;;31.27;;
56136;SDS011;42008;52.934;5.884;2023-05-15T03:09:23;44.13;;;30.40;;
56136;SDS011;42008;52.934;5.884;2023-05-15T03:11:49;39.37;;;29.43;;
56136;SDS011;42008;52.934;5.884;2023-05-15T03:14:15;40.07;;;28.63;;
56136;SDS011;42008;52.934;5.884;2023-05-15T03:16:41;37.70;;;28.10;;
56136;SDS011;42008;52.934;5.884;2023-05-15T03:19:06;33.90;;;26.67;;
56136;SDS011;42008;52.934;5.884;2023-05-15T03:21:32;38.70;;;27.60;;
56136;SDS011;42008;52.934;5.884;2023-05-15T03:23:59;39.37;;;28.57;;
56136;SDS011;42008;52.934;5.884;2023-05-15T03:26:25;37.83;;;27.63;;
56136;SDS011;42008;52.934;5.884;2023-05-15T03:28:51;38.37;;;30.27;;
56136;SDS011;42008;52.934;5.884;2023-05-15T03:31:17;37.77;;;28.63;;
56136;SDS011;42008;52.934;5.884;2023-05-15T03:33:42;50.77;;;30.97;;
56136;SDS011;42008;52.934;5.884;2023-05-15T03:36:09;48.47;;;34.03;;
56136;SDS011;42008;52.934;5.884;2023-05-15T03:38:35;53.03;;;35.40;;
56136;SDS011;42008;52.934;5.884;2023-05-15T03:41:00;49.07;;;33.47;;
56136;SDS011;42008;52.934;5.884;2023-05-15T03:43:26;44.73;;;31.93;;
56136;SDS011;42008;52.934;5.884;2023-05-15T03:45:52;46.50;;;32.07;;
56136;SDS011;42008;52.934;5.884;2023-05-15T03:48:17;40.70;;;31.13;;
56136;SDS011;42008;52.934;5.884;2023-05-15T03:50:43;48.60;;;35.00;;
56136;SDS011;42008;52.934;5.884;2023-05-15T03:53:09;44.67;;;32.87;;
56136;SDS011;42008;52.934;5.884;2023-05-15T03:55:35;46.90;;;33.50;;
56136;SDS011;42008;52.934;5.884;2023-05-15T03:58:00;49.07;;;35.57;;
56136;SDS011;42008;52.934;5.884;2023-05-15T04:00:26;46.70;;;33.20;;
56136;SDS011;42008;52.934;5.884;2023-05-15T04:02:52;44.57;;;32.63;;
56136;SDS011;42008;52.934;5.884;2023-05-15T04:05:17;40.97;;;30.93;;
56136;SDS011;42008;52.934;5.884;2023-05-15T04:07:43;45.00;;;31.90;;
56136;SDS011;42008;52.934;5.884;2023-05-15T04:10:09;46.27;;;30.03;;
56136;SDS011;42008;52.934;5.884;2023-05-15T04:12:35;36.00;;;28.77;;
56136;SDS011;42008;52.934;5.884;2023-05-15T04:17:46;34.47;;;26.90;;
56136;SDS011;42008;52.934;5.884;2023-05-15T04:20:13;35.20;;;27.23;;
56136;SDS011;42008;52.934;5.884;2023-05-15T04:22:41;35.73;;;27.10;;
56136;SDS011;42008;52.934;5.884;2023-05-15T04:25:07;32.53;;;27.07;;
56136;SDS011;42008;52.934;5.884;2023-05-15T04:27:35;33.67;;;27.07;;
56136;SDS011;42008;52.934;5.884;2023-05-15T04:30:01;38.03;;;27.20;;
56136;SDS011;42008;52.934;5.884;2023-05-15T04:32:30;37.03;;;27.50;;
56136;SDS011;42008;52.934;5.884;2023-05-15T04:35:03;34.13;;;27.25;;
56136;SDS011;42008;52.934;5.884;2023-05-15T04:37:29;30.03;;;25.73;;
56136;SDS011;42008;52.934;5.884;2023-05-15T04:39:55;38.37;;;27.00;;
56136;SDS011;42008;52.934;5.884;2023-05-15T04:42:21;43.30;;;29.87;;
56136;SDS011;42008;52.934;5.884;2023-05-15T04:44:46;44.63;;;29.13;;
56136;SDS011;42008;52.934;5.884;2023-05-15T04:47:12;37.50;;;26.47;;
56136;SDS011;42008;52.934;5.884;2023-05-15T04:49:38;35.37;;;27.00;;
56136;SDS011;42008;52.934;5.884;2023-05-15T04:52:05;45.43;;;26.03;;
56136;SDS011;42008;52.934;5.884;2023-05-15T04:54:31;37.50;;;26.33;;
56136;SDS011;42008;52.934;5.884;2023-05-15T04:56:57;34.30;;;26.70;;
56136;SDS011;42008;52.934;5.884;2023-05-15T04:59:23;34.60;;;27.50;;
56136;SDS011;42008;52.934;5.884;2023-05-15T05:01:54;37.55;;;28.65;;
56136;SDS011;42008;52.934;5.884;2023-05-15T05:04:21;38.47;;;27.77;;
56136;SDS011;42008;52.934;5.884;2023-05-15T05:06:47;40.47;;;29.70;;
56136;SDS011;42008;52.934;5.884;2023-05-15T05:09:13;41.57;;;30.47;;
56136;SDS011;42008;52.934;5.884;2023-05-15T05:11:39;42.60;;;30.80;;
56136;SDS011;42008;52.934;5.884;2023-05-15T05:14:11;43.30;;;32.30;;
56136;SDS011;42008;52.934;5.884;2023-05-15T05:16:37;42.37;;;33.30;;
56136;SDS011;42008;52.934;5.884;2023-05-15T05:19:03;42.47;;;32.97;;
56136;SDS011;42008;52.934;5.884;2023-05-15T05:21:29;41.73;;;32.70;;
56136;SDS011;42008;52.934;5.884;2023-05-15T05:23:56;37.63;;;31.77;;
56136;SDS011;42008;52.934;5.884;2023-05-15T05:26:21;39.40;;;31.77;;
56136;SDS011;42008;52.934;5.884;2023-05-15T05:28:47;39.50;;;32.20;;
56136;SDS011;42008;52.934;5.884;2023-05-15T05:31:13;39.67;;;30.30;;
56136;SDS011;42008;52.934;5.884;2023-05-15T05:33:38;39.13;;;30.07;;
56136;SDS011;42008;52.934;5.884;2023-05-15T05:36:04;36.37;;;29.43;;
56136;SDS011;42008;52.934;5.884;2023-05-15T05:38:31;36.37;;;28.93;;
56136;SDS011;42008;52.934;5.884;2023-05-15T05:40:58;34.10;;;27.97;;
56136;SDS011;42008;52.934;5.884;2023-05-15T05:43:25;33.83;;;27.07;;
56136;SDS011;42008;52.934;5.884;2023-05-15T05:45:51;31.83;;;28.40;;
56136;SDS011;42008;52.934;5.884;2023-05-15T05:48:16;40.97;;;31.37;;
56136;SDS011;42008;52.934;5.884;2023-05-15T05:50:42;47.53;;;29.07;;
56136;SDS011;42008;52.934;5.884;2023-05-15T05:53:08;34.30;;;27.97;;
56136;SDS011;42008;52.934;5.884;2023-05-15T05:55:33;56.83;;;29.50;;
56136;SDS011;42008;52.934;5.884;2023-05-15T05:58:00;33.57;;;24.13;;
56136;SDS011;42008;52.934;5.884;2023-05-15T06:00:27;31.47;;;23.63;;
56136;SDS011;42008;52.934;5.884;2023-05-15T06:02:54;29.87;;;23.53;;
56136;SDS011;42008;52.934;5.884;2023-05-15T06:05:21;30.23;;;22.77;;
56136;SDS011;42008;52.934;5.884;2023-05-15T06:07:47;29.67;;;21.40;;
56136;SDS011;42008;52.934;5.884;2023-05-15T06:10:13;25.53;;;18.87;;
56136;SDS011;42008;52.934;5.884;2023-05-15T06:12:39;22.47;;;17.97;;
56136;SDS011;42008;52.934;5.884;2023-05-15T06:15:04;23.37;;;18.73;;
56136;SDS011;42008;52.934;5.884;2023-05-15T06:17:31;26.77;;;21.63;;
56136;SDS011;42008;52.934;5.884;2023-05-15T06:19:56;24.90;;;20.83;;
56136;SDS011;42008;52.934;5.884;2023-05-15T06:22:22;25.40;;;21.70;;
56136;SDS011;42008;52.934;5.884;2023-05-15T06:24:47;25.17;;;20.83;;
56136;SDS011;42008;52.934;5.884;2023-05-15T06:27:13;23.83;;;21.23;;
56136;SDS011;42008;52.934;5.884;2023-05-15T06:29:39;25.03;;;22.27;;
56136;SDS011;42008;52.934;5.884;2023-05-15T06:32:04;25.33;;;22.70;;
56136;SDS011;42008;52.934;5.884;2023-05-15T06:34:30;24.63;;;22.07;;
56136;SDS011;42008;52.934;5.884;2023-05-15T06:36:56;25.03;;;22.33;;
56136;SDS011;42008;52.934;5.884;2023-05-15T06:39:21;25.33;;;22.73;;
56136;SDS011;42008;52.934;5.884;2023-05-15T06:41:47;25.17;;;22.47;;
56136;SDS011;42008;52.934;5.884;2023-05-15T06:44:12;27.03;;;24.30;;
56136;SDS011;42008;52.934;5.884;2023-05-15T06:46:38;29.53;;;24.40;;
56136;SDS011;42008;52.934;5.884;2023-05-15T06:49:04;28.50;;;23.47;;
56136;SDS011;42008;52.934;5.884;2023-05-15T06:51:30;27.50;;;24.57;;
56136;SDS011;42008;52.934;5.884;2023-05-15T06:53:55;27.87;;;24.90;;
56136;SDS011;42008;52.934;5.884;2023-05-15T06:56:21;30.30;;;25.60;;
56136;SDS011;42008;52.934;5.884;2023-05-15T06:58:46;29.07;;;25.17;;
56136;SDS011;42008;52.934;5.884;2023-05-15T07:01:12;36.27;;;25.50;;
56136;SDS011;42008;52.934;5.884;2023-05-15T07:03:37;25.57;;;22.93;;
56136;SDS011;42008;52.934;5.884;2023-05-15T07:06:03;28.13;;;24.47;;
56136;SDS011;42008;52.934;5.884;2023-05-15T07:08:29;25.90;;;23.23;;
56136;SDS011;42008;52.934;5.884;2023-05-15T07:10:55;27.33;;;23.33;;
56136;SDS011;42008;52.934;5.884;2023-05-15T07:13:20;24.20;;;21.17;;
56136;SDS011;42008;52.934;5.884;2023-05-15T07:15:47;22.10;;;19.73;;
56136;SDS011;42008;52.934;5.884;2023-05-15T07:18:13;24.97;;;22.27;;
56136;SDS011;42008;52.934;5.884;2023-05-15T07:20:38;23.73;;;21.23;;
56136;SDS011;42008;52.934;5.884;2023-05-15T07:23:04;25.00;;;21.00;;
56136;SDS011;42008;52.934;5.884;2023-05-15T07:25:30;30.90;;;23.83;;
56136;SDS011;42008;52.934;5.884;2023-05-15T07:27:55;26.30;;;23.23;;
56136;SDS011;42008;52.934;5.884;2023-05-15T07:30:21;26.23;;;23.40;;
56136;SDS011;42008;52.934;5.884;2023-05-15T07:32:47;32.43;;;25.27;;
56136;SDS011;42008;52.934;5.884;2023-05-15T07:35:12;26.33;;;23.63;;
56136;SDS011;42008;52.934;5.884;2023-05-15T07:37:38;25.00;;;22.30;;
56136;SDS011;42008;52.934;5.884;2023-05-15T07:40:05;28.47;;;25.53;;
56136;SDS011;42008;52.934;5.884;2023-05-15T07:42:31;27.53;;;24.57;;
56136;SDS011;42008;52.934;5.884;2023-05-15T07:44:56;26.77;;;23.23;;
56136;SDS011;42008;52.934;5.884;2023-05-15T07:47:22;28.17;;;25.00;;
56136;SDS011;42008;52.934;5.884;2023-05-15T07:49:48;25.57;;;22.73;;
56136;SDS011;42008;52.934;5.884;2023-05-15T07:52:13;29.70;;;22.87;;
56136;SDS011;42008;52.934;5.884;2023-05-15T07:54:39;25.60;;;22.97;;
56136;SDS011;42008;52.934;5.884;2023-05-15T07:57:06;25.90;;;21.63;;
56136;SDS011;42008;52.934;5.884;2023-05-15T07:59:33;26.83;;;22.77;;
56136;SDS011;42008;52.934;5.884;2023-05-15T08:01:59;25.23;;;22.53;;
56136;SDS011;42008;52.934;5.884;2023-05-15T08:04:24;22.77;;;20.33;;
56136;SDS011;42008;52.934;5.884;2023-05-15T08:06:50;28.50;;;21.87;;
56136;SDS011;42008;52.934;5.884;2023-05-15T08:09:16;24.00;;;21.53;;
56136;SDS011;42008;52.934;5.884;2023-05-15T08:11:42;23.10;;;20.80;;
56136;SDS011;42008;52.934;5.884;2023-05-15T08:14:07;25.37;;;21.67;;
56136;SDS011;42008;52.934;5.884;2023-05-15T08:16:33;25.23;;;22.30;;
56136;SDS011;42008;52.934;5.884;2023-05-15T08:18:59;24.93;;;22.23;;
56136;SDS011;42008;52.934;5.884;2023-05-15T08:21:28;22.60;;;20.00;;
56136;SDS011;42008;52.934;5.884;2023-05-15T08:23:55;25.77;;;20.80;;
56136;SDS011;42008;52.934;5.884;2023-05-15T08:26:21;23.37;;;19.80;;
56136;SDS011;42008;52.934;5.884;2023-05-15T08:28:46;26.80;;;20.17;;
56136;SDS011;42008;52.934;5.884;2023-05-15T08:31:12;24.77;;;20.27;;
56136;SDS011;42008;52.934;5.884;2023-05-15T08:33:37;21.70;;;19.40;;
56136;SDS011;42008;52.934;5.884;2023-05-15T08:36:03;22.80;;;19.10;;
56136;SDS011;42008;52.934;5.884;2023-05-15T08:38:29;22.60;;;19.30;;
56136;SDS011;42008;52.934;5.884;2023-05-15T08:40:56;21.40;;;18.20;;
56136;SDS011;42008;52.934;5.884;2023-05-15T08:43:26;21.33;;;17.47;;
56136;SDS011;42008;52.934;5.884;2023-05-15T08:45:55;22.57;;;19.10;;
56136;SDS011;42008;52.934;5.884;2023-05-15T08:48:22;22.60;;;19.07;;
56136;SDS011;42008;52.934;5.884;2023-05-15T08:50:49;21.73;;;19.43;;
56136;SDS011;42008;52.934;5.884;2023-05-15T08:53:16;22.37;;;18.30;;
56136;SDS011;42008;52.934;5.884;2023-05-15T08:55:42;18.80;;;16.90;;
56136;SDS011;42008;52.934;5.884;2023-05-15T08:58:08;21.97;;;18.43;;
56136;SDS011;42008;52.934;5.884;2023-05-15T09:00:34;23.13;;;20.00;;
56136;SDS011;42008;52.934;5.884;2023-05-15T09:03:00;23.30;;;20.37;;
56136;SDS011;42008;52.934;5.884;2023-05-15T09:05:26;26.07;;;19.60;;
56136;SDS011;42008;52.934;5.884;2023-05-15T09:07:53;21.17;;;16.67;;
56136;SDS011;42008;52.934;5.884;2023-05-15T09:10:19;20.10;;;17.83;;
56136;SDS011;42008;52.934;5.884;2023-05-15T09:12:46;20.73;;;18.57;;
56136;SDS011;42008;52.934;5.884;2023-05-15T09:15:14;20.43;;;17.97;;
56136;SDS011;42008;52.934;5.884;2023-05-15T09:17:42;19.20;;;16.60;;
56136;SDS011;42008;52.934;5.884;2023-05-15T09:23:02;22.23;;;19.03;;
56136;SDS011;42008;52.934;5.884;2023-05-15T09:28:05;22.37;;;18.27;;
56136;SDS011;42008;52.934;5.884;2023-05-15T09:30:55;19.13;;;17.10;;
56136;SDS011;42008;52.934;5.884;2023-05-15T09:33:29;19.10;;;17.17;;
56136;SDS011;42008;52.934;5.884;2023-05-15T09:36:00;19.57;;;16.00;;
56136;SDS011;42008;52.934;5.884;2023-05-15T09:38:26;20.13;;;15.63;;
56136;SDS011;42008;52.934;5.884;2023-05-15T09:41:03;17.37;;;15.47;;
56136;SDS011;42008;52.934;5.884;2023-05-15T09:43:35;19.40;;;15.73;;
56136;SDS011;42008;52.934;5.884;2023-05-15T09:46:02;20.08;;;15.23;;
56136;SDS011;42008;52.934;5.884;2023-05-15T09:48:28;19.53;;;14.27;;
56136;SDS011;42008;52.934;5.884;2023-05-15T09:50:55;16.57;;;14.60;;
56136;SDS011;42008;52.934;5.884;2023-05-15T09:53:21;16.97;;;14.83;;
56136;SDS011;42008;52.934;5.884;2023-05-15T09:55:48;18.03;;;14.97;;
56136;SDS011;42008;52.934;5.884;2023-05-15T09:58:17;16.43;;;14.17;;
56136;SDS011;42008;52.934;5.884;2023-05-15T10:00:44;17.70;;;14.70;;
56136;SDS011;42008;52.934;5.884;2023-05-15T10:03:11;17.57;;;14.73;;
56136;SDS011;42008;52.934;5.884;2023-05-15T10:05:38;18.30;;;13.80;;
56136;SDS011;42008;52.934;5.884;2023-05-15T10:08:04;18.03;;;14.27;;
56136;SDS011;42008;52.934;5.884;2023-05-15T10:10:31;17.33;;;14.13;;
56136;SDS011;42008;52.934;5.884;2023-05-15T10:13:00;15.77;;;13.90;;
56136;SDS011;42008;52.934;5.884;2023-05-15T10:15:27;17.83;;;13.23;;
56136;SDS011;42008;52.934;5.884;2023-05-15T10:17:54;16.33;;;14.20;;
56136;SDS011;42008;52.934;5.884;2023-05-15T10:20:22;16.63;;;13.00;;
56136;SDS011;42008;52.934;5.884;2023-05-15T10:22:49;15.30;;;13.13;;
56136;SDS011;42008;52.934;5.884;2023-05-15T10:28:10;16.40;;;14.13;;
56136;SDS011;42008;52.934;5.884;2023-05-15T10:30:36;17.17;;;13.83;;
56136;SDS011;42008;52.934;5.884;2023-05-15T10:33:06;17.07;;;14.33;;
56136;SDS011;42008;52.934;5.884;2023-05-15T10:35:36;15.83;;;13.63;;
56136;SDS011;42008;52.934;5.884;2023-05-15T10:38:04;15.18;;;12.98;;
56136;SDS011;42008;52.934;5.884;2023-05-15T10:40:31;20.43;;;14.83;;
56136;SDS011;42008;52.934;5.884;2023-05-15T10:42:57;15.93;;;14.30;;
56136;SDS011;42008;52.934;5.884;2023-05-15T10:45:25;18.50;;;14.50;;
56136;SDS011;42008;52.934;5.884;2023-05-15T10:47:51;16.73;;;14.60;;
56136;SDS011;42008;52.934;5.884;2023-05-15T10:50:17;16.83;;;15.00;;
56136;SDS011;42008;52.934;5.884;2023-05-15T10:52:44;17.13;;;15.33;;
56136;SDS011;42008;52.934;5.884;2023-05-15T10:55:13;15.63;;;13.97;;
56136;SDS011;42008;52.934;5.884;2023-05-15T10:57:40;17.90;;;13.70;;
56136;SDS011;42008;52.934;5.884;2023-05-15T11:02:48;15.23;;;12.50;;
56136;SDS011;42008;52.934;5.884;2023-05-15T11:05:17;16.93;;;12.03;;
56136;SDS011;42008;52.934;5.884;2023-05-15T11:07:43;14.47;;;11.30;;
56136;SDS011;42008;52.934;5.884;2023-05-15T11:12:54;14.90;;;11.87;;
56136;SDS011;42008;52.934;5.884;2023-05-15T11:15:21;15.03;;;12.23;;
56136;SDS011;42008;52.934;5.884;2023-05-15T11:18:03;18.90;;;13.83;;
56136;SDS011;42008;52.934;5.884;2023-05-15T11:20:33;14.23;;;11.50;;
56136;SDS011;42008;52.934;5.884;2023-05-15T11:23:06;14.00;;;11.60;;
56136;SDS011;42008;52.934;5.884;2023-05-15T11:25:33;13.53;;;11.93;;
56136;SDS011;42008;52.934;5.884;2023-05-15T11:28:01;14.73;;;13.00;;
56136;SDS011;42008;52.934;5.884;2023-05-15T11:30:37;15.67;;;14.07;;
56136;SDS011;42008;52.934;5.884;2023-05-15T11:33:04;17.13;;;14.50;;
56136;SDS011;42008;52.934;5.884;2023-05-15T11:38:10;16.67;;;13.93;;
56136;SDS011;42008;52.934;5.884;2023-05-15T11:40:52;14.65;;;12.95;;
56136;SDS011;42008;52.934;5.884;2023-05-15T11:43:30;14.63;;;12.87;;
56136;SDS011;42008;52.934;5.884;2023-05-15T11:46:05;15.43;;;12.27;;
56136;SDS011;42008;52.934;5.884;2023-05-15T11:48:32;17.97;;;11.20;;
56136;SDS011;42008;52.934;5.884;2023-05-15T11:51:03;15.03;;;12.10;;
56136;SDS011;42008;52.934;5.884;2023-05-15T11:53:29;12.50;;;11.20;;
56136;SDS011;42008;52.934;5.884;2023-05-15T11:55:56;14.50;;;12.13;;
56136;SDS011;42008;52.934;5.884;2023-05-15T11:58:22;12.80;;;11.27;;
56136;SDS011;42008;52.934;5.884;2023-05-15T12:00:49;11.87;;;10.43;;
56136;SDS011;42008;52.934;5.884;2023-05-15T12:03:26;13.33;;;9.87;;
56136;SDS011;42008;52.934;5.884;2023-05-15T12:05:57;14.88;;;10.88;;
56136;SDS011;42008;52.934;5.884;2023-05-15T12:08:22;12.83;;;10.10;;
56136;SDS011;42008;52.934;5.884;2023-05-15T12:10:48;15.53;;;9.30;;
56136;SDS011;42008;52.934;5.884;2023-05-15T12:13:14;13.20;;;9.63;;
56136;SDS011;42008;52.934;5.884;2023-05-15T12:15:43;11.50;;;10.27;;
56136;SDS011;42008;52.934;5.884;2023-05-15T12:18:10;11.40;;;10.10;;
56136;SDS011;42008;52.934;5.884;2023-05-15T12:20:37;13.93;;;10.37;;
56136;SDS011;42008;52.934;5.884;2023-05-15T12:23:05;13.57;;;10.30;;
56136;SDS011;42008;52.934;5.884;2023-05-15T12:25:32;12.63;;;10.73;;
56136;SDS011;42008;52.934;5.884;2023-05-15T12:28:00;10.57;;;9.47;;
56136;SDS011;42008;52.934;5.884;2023-05-15T12:30:31;11.80;;;10.60;;
56136;SDS011;42008;52.934;5.884;2023-05-15T12:33:04;16.27;;;10.20;;
56136;SDS011;42008;52.934;5.884;2023-05-15T12:35:32;12.27;;;11.07;;
56136;SDS011;42008;52.934;5.884;2023-05-15T12:37:59;13.27;;;11.47;;
56136;SDS011;42008;52.934;5.884;2023-05-15T12:40:28;12.67;;;11.20;;
56136;SDS011;42008;52.934;5.884;2023-05-15T12:42:57;13.50;;;11.07;;
56136;SDS011;42008;52.934;5.884;2023-05-15T12:45:23;12.47;;;11.07;;
56136;SDS011;42008;52.934;5.884;2023-05-15T12:47:50;13.30;;;11.57;;
56136;SDS011;42008;52.934;5.884;2023-05-15T12:50:19;13.93;;;12.43;;
56136;SDS011;42008;52.934;5.884;2023-05-15T12:55:16;12.67;;;11.00;;
56136;SDS011;42008;52.934;5.884;2023-05-15T12:57:43;12.87;;;11.47;;
56136;SDS011;42008;52.934;5.884;2023-05-15T13:00:09;12.73;;;11.10;;
56136;SDS011;42008;52.934;5.884;2023-05-15T13:02:36;12.87;;;11.57;;
56136;SDS011;42008;52.934;5.884;2023-05-15T13:05:02;12.00;;;10.20;;
56136;SDS011;42008;52.934;5.884;2023-05-15T13:07:28;13.53;;;11.27;;
56136;SDS011;42008;52.934;5.884;2023-05-15T13:10:01;14.03;;;11.83;;
56136;SDS011;42008;52.934;5.884;2023-05-15T13:12:36;14.07;;;12.57;;
56136;SDS011;42008;52.934;5.884;2023-05-15T13:17:59;15.33;;;12.23;;
56136;SDS011;42008;52.934;5.884;2023-05-15T13:20:39;13.87;;;12.40;;
56136;SDS011;42008;52.934;5.884;2023-05-15T13:23:06;14.87;;;13.40;;
56136;SDS011;42008;52.934;5.884;2023-05-15T13:25:33;16.07;;;12.40;;
56136;SDS011;42008;52.934;5.884;2023-05-15T13:28:03;14.30;;;12.93;;
56136;SDS011;42008;52.934;5.884;2023-05-15T13:30:33;15.17;;;12.33;;
56136;SDS011;42008;52.934;5.884;2023-05-15T13:32:59;14.50;;;13.00;;
56136;SDS011;42008;52.934;5.884;2023-05-15T13:35:25;15.60;;;12.43;;
56136;SDS011;42008;52.934;5.884;2023-05-15T13:37:51;15.37;;;12.67;;
56136;SDS011;42008;52.934;5.884;2023-05-15T13:40:17;17.80;;;12.80;;
56136;SDS011;42008;52.934;5.884;2023-05-15T13:42:43;14.93;;;13.10;;
56136;SDS011;42008;52.934;5.884;2023-05-15T13:45:10;13.50;;;11.63;;
56136;SDS011;42008;52.934;5.884;2023-05-15T13:47:37;13.90;;;11.77;;
56136;SDS011;42008;52.934;5.884;2023-05-15T13:50:06;16.30;;;13.50;;
56136;SDS011;42008;52.934;5.884;2023-05-15T13:52:32;16.27;;;12.63;;
56136;SDS011;42008;52.934;5.884;2023-05-15T13:54:58;16.83;;;13.10;;
56136;SDS011;42008;52.934;5.884;2023-05-15T13:57:23;20.20;;;14.53;;
56136;SDS011;42008;52.934;5.884;2023-05-15T13:59:49;17.60;;;15.80;;
56136;SDS011;42008;52.934;5.884;2023-05-15T14:02:15;17.97;;;15.97;;
56136;SDS011;42008;52.934;5.884;2023-05-15T14:04:40;17.97;;;16.07;;
56136;SDS011;42008;52.934;5.884;2023-05-15T14:07:06;18.40;;;16.50;;
56136;SDS011;42008;52.934;5.884;2023-05-15T14:09:32;18.70;;;16.70;;
56136;SDS011;42008;52.934;5.884;2023-05-15T14:11:57;23.30;;;18.53;;
56136;SDS011;42008;52.934;5.884;2023-05-15T14:14:23;24.80;;;19.10;;
56136;SDS011;42008;52.934;5.884;2023-05-15T14:16:48;21.10;;;18.10;;
56136;SDS011;42008;52.934;5.884;2023-05-15T14:19:14;24.40;;;18.37;;
56136;SDS011;42008;52.934;5.884;2023-05-15T14:21:40;19.67;;;17.67;;
56136;SDS011;42008;52.934;5.884;2023-05-15T14:24:06;20.67;;;18.47;;
56136;SDS011;42008;52.934;5.884;2023-05-15T14:26:31;21.43;;;18.97;;
56136;SDS011;42008;52.934;5.884;2023-05-15T14:28:57;23.37;;;19.27;;
56136;SDS011;42008;52.934;5.884;2023-05-15T14:31:23;24.17;;;21.63;;
56136;SDS011;42008;52.934;5.884;2023-05-15T14:33:49;21.77;;;18.90;;
56136;SDS011;42008;52.934;5.884;2023-05-15T14:36:15;21.57;;;18.13;;
56136;SDS011;42008;52.934;5.884;2023-05-15T14:38:40;19.67;;;17.40;;
56136;SDS011;42008;52.934;5.884;2023-05-15T14:41:09;21.80;;;18.23;;
56136;SDS011;42008;52.934;5.884;2023-05-15T14:43:37;20.30;;;18.20;;
56136;SDS011;42008;52.934;5.884;2023-05-15T14:46:04;20.47;;;18.37;;
56136;SDS011;42008;52.934;5.884;2023-05-15T14:48:29;22.27;;;18.63;;
56136;SDS011;42008;52.934;5.884;2023-05-15T14:50:55;21.20;;;18.53;;
56136;SDS011;42008;52.934;5.884;2023-05-15T14:53:22;20.80;;;18.17;;
56136;SDS011;42008;52.934;5.884;2023-05-15T14:55:47;19.63;;;17.57;;
56136;SDS011;42008;52.934;5.884;2023-05-15T14:58:13;19.57;;;16.00;;
56136;SDS011;42008;52.934;5.884;2023-05-15T15:00:39;18.47;;;16.03;;
56136;SDS011;42008;52.934;5.884;2023-05-15T15:03:05;19.60;;;16.80;;